createdAt,value
2022-10-25T00:04:51.906Z,100927.09
2022-10-25T00:09:53.373Z,100929.84
2022-10-25T00:14:54.916Z,100934.69
2022-10-25T00:19:56.362Z,100936.56
2022-10-25T00:24:57.815Z,100928.16
2022-10-25T00:29:59.319Z,100933.44
2022-10-25T00:35:01.045Z,100936.38
2022-10-25T00:40:04.769Z,100932.44
2022-10-25T00:45:23.530Z,100955.84
2022-10-25T00:50:43.528Z,100958.91
2022-10-25T00:55:48.533Z,100967.81
2022-10-25T01:00:50.439Z,100956.00
2022-10-25T01:05:52.600Z,100964.88
2022-10-25T01:10:54.057Z,100963.84
2022-10-25T01:15:58.232Z,100978.38
2022-10-25T01:21:30.821Z,100975.66
2022-10-25T01:26:59.650Z,100990.41
2022-10-25T01:32:08.824Z,100986.44
2022-10-25T01:37:25.870Z,100988.63
2022-10-25T01:42:35.594Z,100993.75
2022-10-25T01:47:43.774Z,100995.44
2022-10-25T01:52:45.415Z,100999.72
2022-10-25T01:58:01.807Z,101002.81
2022-10-25T02:03:10.738Z,100992.03
2022-10-25T02:08:35.750Z,100991.53
2022-10-25T02:13:46.027Z,101008.50
2022-10-25T02:18:53.527Z,101005.00
2022-10-25T02:23:55.939Z,101010.78
2022-10-25T02:28:57.718Z,101005.31
2022-10-25T02:33:59.410Z,101000.22
2022-10-25T02:39:02.063Z,101010.31
2022-10-25T02:44:03.567Z,101011.34
2022-10-25T02:49:05.323Z,101011.19
2022-10-25T02:54:06.888Z,101021.66
2022-10-25T02:59:11.439Z,101024.75
2022-10-25T03:04:12.913Z,101031.28
2022-10-25T03:09:14.373Z,101034.91
2022-10-25T03:14:15.916Z,101039.72
2022-10-25T03:19:17.427Z,101045.56
2022-10-25T03:24:18.958Z,101052.94
2022-10-25T03:29:20.521Z,101051.25
2022-10-25T03:34:22.060Z,101066.28
2022-10-25T03:39:23.544Z,101066.28
2022-10-25T03:44:25.065Z,101072.81
2022-10-25T03:49:26.625Z,101083.41
2022-10-25T03:54:29.325Z,101084.09
2022-10-25T03:59:31.056Z,101100.16
2022-10-25T04:04:32.543Z,101094.00
2022-10-25T04:09:34.033Z,101091.81
2022-10-25T04:14:35.510Z,101108.28
2022-10-25T04:19:36.979Z,101104.78
2022-10-25T04:24:38.635Z,101113.34
2022-10-25T04:29:40.076Z,101111.97
2022-10-25T04:34:41.525Z,101127.06
2022-10-25T04:39:43.044Z,101120.59
2022-10-25T04:44:44.551Z,101123.69
2022-10-25T04:49:46.026Z,101115.31
2022-10-25T04:54:47.493Z,101125.25
2022-10-25T04:59:48.996Z,101135.22
2022-10-25T05:04:50.442Z,101142.41
2022-10-25T05:09:51.881Z,101143.13
2022-10-25T05:14:53.346Z,101148.25
2022-10-25T05:19:54.800Z,101153.22
2022-10-25T05:24:56.255Z,101154.06
2022-10-25T05:29:57.752Z,101166.91
2022-10-25T05:34:59.198Z,101174.28
2022-10-25T05:40:00.656Z,101174.47
2022-10-25T05:45:02.112Z,101180.59
2022-10-25T05:50:03.607Z,101186.25
2022-10-25T05:55:05.487Z,101194.63
2022-10-25T06:00:07.547Z,101183.88
2022-10-25T06:05:09.233Z,101188.66
2022-10-25T06:10:10.977Z,101184.22
2022-10-25T06:15:12.513Z,101194.31
2022-10-25T06:20:13.970Z,101207.16
2022-10-25T06:25:15.506Z,101208.34
2022-10-25T06:30:17.080Z,101209.19
2022-10-25T06:35:18.581Z,101206.63
2022-10-25T06:40:20.055Z,101214.50
2022-10-25T06:45:21.697Z,101215.00
2022-10-25T06:50:23.215Z,101217.41
2022-10-25T06:55:24.726Z,101228.69
2022-10-25T07:00:26.234Z,101237.94
2022-10-25T07:05:27.726Z,101240.19
2022-10-25T07:10:29.183Z,101245.63
2022-10-25T07:15:30.626Z,101248.88
2022-10-25T07:20:32.130Z,101264.47
2022-10-25T07:25:33.604Z,101271.13
2022-10-25T07:30:35.208Z,101281.38
2022-10-25T07:35:46.632Z,101283.09
2022-10-25T07:40:58.962Z,101290.28
2022-10-25T07:46:00.519Z,101291.44
2022-10-25T07:51:07.634Z,101294.66
2022-10-25T07:56:20.639Z,101293.28
2022-10-25T08:01:26.790Z,101306.59
2022-10-25T08:06:28.538Z,101311.53
2022-10-25T08:11:30.619Z,101302.44
2022-10-25T08:16:32.080Z,101311.28
2022-10-25T08:21:33.561Z,101319.31
2022-10-25T08:26:36.911Z,101316.19
2022-10-25T08:31:38.832Z,101313.56
2022-10-25T08:36:40.322Z,101333.72
2022-10-25T08:41:57.439Z,101348.75
2022-10-25T08:47:26.918Z,101356.75
2022-10-25T08:52:41.133Z,101358.72
2022-10-25T08:57:46.871Z,101363.59
2022-10-25T09:02:57.579Z,101363.63
2022-10-25T09:08:37.914Z,101378.81
2022-10-25T09:13:42.224Z,101378.47
2022-10-25T09:18:51.135Z,101377.09
2022-10-25T09:24:01.913Z,101382.97
2022-10-25T09:29:13.250Z,101383.19
2022-10-25T09:34:18.928Z,101383.66
2022-10-25T09:39:34.326Z,101397.31
2022-10-25T09:44:56.851Z,101398.34
2022-10-25T09:50:15.669Z,101393.03
2022-10-25T09:55:37.804Z,101398.53
2022-10-25T10:00:40.665Z,101406.13
2022-10-25T10:05:48.613Z,101418.69
2022-10-25T10:10:51.587Z,101415.56
2022-10-25T10:15:57.719Z,101420.03
2022-10-25T10:21:14.361Z,101431.41
2022-10-25T10:26:23.964Z,101443.66
2022-10-25T10:31:35.876Z,101443.63
2022-10-25T10:36:37.407Z,101454.13
2022-10-25T10:42:03.473Z,101442.91
2022-10-25T10:47:19.876Z,101453.38
2022-10-25T10:53:01.230Z,101453.00
2022-10-25T10:58:17.787Z,101446.53
2022-10-25T11:03:45.202Z,101459.13
2022-10-25T11:09:25.570Z,101465.25
2022-10-25T11:14:27.070Z,101470.44
2022-10-25T11:19:59.671Z,101468.13
2022-10-25T11:25:16.874Z,101476.31
2022-10-25T11:30:21.105Z,101482.47
2022-10-25T11:35:44.444Z,101482.97
2022-10-25T11:41:23.018Z,101475.63
2022-10-25T11:46:52.361Z,101473.50
2022-10-25T11:52:10.439Z,101473.63
2022-10-25T11:57:46.679Z,101475.88
2022-10-25T12:03:20.508Z,101472.25
2022-10-25T12:08:37.405Z,101474.13
2022-10-25T12:13:51.930Z,101491.13
2022-10-25T12:19:19.320Z,101486.22
2022-10-25T12:24:39.760Z,101487.09
2022-10-25T12:29:54.405Z,101485.25
2022-10-25T12:34:59.667Z,101490.44
2022-10-25T12:40:01.274Z,101485.81
2022-10-25T12:45:21.151Z,101496.19
2022-10-25T12:50:28.564Z,101501.44
2022-10-25T12:55:56.520Z,101497.78
2022-10-25T13:01:36.779Z,101493.50
2022-10-25T13:06:43.127Z,101485.19
2022-10-25T13:12:02.162Z,101497.94
2022-10-25T13:17:15.838Z,101491.78
2022-10-25T13:22:36.010Z,101495.63
2022-10-25T13:28:15.133Z,101499.53
2022-10-25T13:33:27.556Z,101499.78
2022-10-25T13:38:39.123Z,101495.81
2022-10-25T13:44:03.267Z,101500.84
2022-10-25T13:49:43.196Z,101502.13
2022-10-25T13:54:49.322Z,101503.53
2022-10-25T13:59:50.757Z,101496.56
2022-10-25T14:04:52.397Z,101500.44
2022-10-25T14:09:54.191Z,101495.63
2022-10-25T14:15:07.851Z,101499.69
2022-10-25T14:20:28.383Z,101503.91
2022-10-25T14:25:36.501Z,101510.25
2022-10-25T14:30:48.958Z,101494.34
2022-10-25T14:36:10.835Z,101499.09
2022-10-25T14:41:12.858Z,101492.47
2022-10-25T14:46:16.574Z,101487.75
2022-10-25T14:51:21.707Z,101487.19
2022-10-25T14:56:42.222Z,101481.09
2022-10-25T15:02:10.378Z,101468.53
2022-10-25T15:07:24.073Z,101483.44
2022-10-25T15:12:27.263Z,101477.78
2022-10-25T15:17:30.600Z,101483.94
2022-10-25T15:23:00.713Z,101478.22
2022-10-25T15:28:10.780Z,101488.28
2022-10-25T15:33:16.192Z,101480.22
2022-10-25T15:38:17.994Z,101476.97
2022-10-25T15:43:19.527Z,101478.28
2022-10-25T15:48:23.660Z,101493.13
2022-10-25T15:53:25.615Z,101489.09
2022-10-25T15:58:27.081Z,101483.16
2022-10-25T16:03:28.537Z,101483.56
2022-10-25T16:08:30.366Z,101469.84
2022-10-25T16:13:35.736Z,101462.69
2022-10-25T16:18:37.183Z,101467.72
2022-10-25T16:23:38.641Z,101469.38
2022-10-25T16:28:40.867Z,101474.38
2022-10-25T16:33:42.331Z,101483.00
2022-10-25T16:38:43.793Z,101477.72
2022-10-25T16:43:48.452Z,101481.34
2022-10-25T16:48:51.162Z,101479.84
2022-10-25T16:53:52.920Z,101479.84
2022-10-25T16:58:54.480Z,101482.44
2022-10-25T17:03:55.997Z,101489.31
2022-10-25T17:08:57.481Z,101481.59
2022-10-25T17:13:58.942Z,101485.50
2022-10-25T17:19:00.456Z,101484.31
2022-10-25T17:24:04.533Z,101487.94
2022-10-25T17:29:06.011Z,101476.09
2022-10-25T17:34:07.757Z,101494.97
2022-10-25T17:39:10.509Z,101483.28
2022-10-25T17:44:12.052Z,101484.47
2022-10-25T17:49:13.654Z,101482.72
2022-10-25T17:54:16.906Z,101489.63
2022-10-25T17:59:18.427Z,101487.88
2022-10-25T18:04:19.920Z,101500.94
2022-10-25T18:09:21.363Z,101494.78
2022-10-25T18:14:22.999Z,101490.81
2022-10-25T18:19:24.540Z,101501.47
2022-10-25T18:24:26.458Z,101487.25
2022-10-25T18:29:27.941Z,101485.00
2022-10-25T18:34:29.647Z,101479.88
2022-10-25T18:39:31.116Z,101487.94
2022-10-25T18:44:32.697Z,101497.19
2022-10-25T18:49:34.176Z,101494.63
2022-10-25T18:54:35.704Z,101498.56
2022-10-25T18:59:37.193Z,101497.88
2022-10-25T19:04:38.657Z,101487.56
2022-10-25T19:09:40.143Z,101489.13
2022-10-25T19:14:41.859Z,101490.16
2022-10-25T19:19:43.360Z,101482.06
2022-10-25T19:24:44.936Z,101491.19
2022-10-25T19:29:46.504Z,101487.22
2022-10-25T19:34:48.055Z,101477.28
2022-10-25T19:39:49.539Z,101462.88
2022-10-25T19:44:52.599Z,101465.28
2022-10-25T19:49:54.123Z,101469.25
2022-10-25T19:54:55.648Z,101477.47
2022-10-25T19:59:57.194Z,101466.84
2022-10-25T20:04:58.712Z,101485.50
2022-10-25T20:10:00.215Z,101460.13
2022-10-25T20:15:01.897Z,101458.94
2022-10-25T20:20:03.692Z,101452.78
2022-10-25T20:25:07.054Z,101472.13
2022-10-25T20:30:08.883Z,101470.91
2022-10-25T20:35:10.398Z,101462.16
2022-10-25T20:40:12.242Z,101458.03
2022-10-25T20:45:13.746Z,101451.53
2022-10-25T20:50:15.247Z,101447.59
2022-10-25T20:55:19.035Z,101449.47
2022-10-25T21:00:20.814Z,101448.94
2022-10-25T21:05:22.292Z,101454.06
2022-10-25T21:10:23.884Z,101452.19
2022-10-25T21:15:25.342Z,101450.28
2022-10-25T21:20:26.934Z,101449.44
2022-10-25T21:25:28.398Z,101442.63
2022-10-25T21:30:30.998Z,101439.69
2022-10-25T21:35:32.764Z,101440.91
2022-10-25T21:40:34.240Z,101441.91
2022-10-25T21:45:40.266Z,101440.72
2022-10-25T21:50:41.778Z,101437.13
2022-10-25T21:55:43.279Z,101439.03
2022-10-25T22:00:44.787Z,101443.47
2022-10-25T22:05:48.722Z,101439.00
2022-10-25T22:11:04.691Z,101436.59
2022-10-25T22:16:09.250Z,101428.38
2022-10-25T22:21:12.444Z,101439.69
2022-10-25T22:26:16.377Z,101440.56
2022-10-25T22:31:19.258Z,101435.56
2022-10-25T22:36:23.012Z,101440.03
2022-10-25T22:41:26.251Z,101438.13
2022-10-25T22:46:33.853Z,101424.44
2022-10-25T22:51:35.548Z,101410.94
2022-10-25T22:56:37.135Z,101412.97
2022-10-25T23:01:38.862Z,101412.09
2022-10-25T23:06:40.726Z,101417.56
2022-10-25T23:11:42.266Z,101412.34
2022-10-25T23:16:43.783Z,101414.19
2022-10-25T23:21:45.266Z,101416.78
2022-10-25T23:26:46.848Z,101411.69
2022-10-25T23:31:48.354Z,101409.78
2022-10-25T23:36:49.869Z,101406.88
2022-10-25T23:41:56.561Z,101410.13
2022-10-25T23:46:57.978Z,101408.59
2022-10-25T23:51:59.539Z,101403.44
2022-10-25T23:57:00.982Z,101406.84
